MDT,Max TemperatureF,Mean TemperatureF,Min TemperatureF,Max Dew PointF,MeanDew PointF,Min DewpointF,Max Humidity, Mean Humidity, Min Humidity, Max Sea Level PressureIn, Mean Sea Level PressureIn, Min Sea Level PressureIn, Max VisibilityMiles, Mean VisibilityMiles, Min VisibilityMiles, Max Wind SpeedMPH, Mean Wind SpeedMPH, Max Gust SpeedMPH,PrecipitationIn, CloudCover, Events, WindDirDegrees
2012-10-1,77,59,41,35,31,25,58,37,16,30.29,30.17,30.06,10,10,10,15,7,21,0.00,0,,231
2012-10-2,80,59,37,32,29,25,70,42,13,30.06,29.93,29.82,10,10,10,31,13,38,0.00,0,,235
2012-10-3,60,48,36,30,20,12,44,30,15,30.25,30.08,29.81,10,10,6,26,13,36,0.00,0,,331
2012-10-4,60,42,24,21,17,9,75,44,12,30.27,30.17,30.08,10,10,10,13,4,16,0.00,0,,299
2012-10-5,55,40,24,21,18,13,75,47,19,30.29,30.23,30.14,10,10,10,13,4,16,0.00,0,,32
2012-10-6,56,39,21,17,7,-12,68,37,6,30.36,30.28,30.20,10,10,10,14,5,17,0.00,0,,39
2012-10-7,61,40,18,14,9,2,67,40,12,30.32,30.20,30.06,10,10,10,9,3,15,0.00,0,,323
2012-10-8,69,46,22,17,13,4,68,38,8,30.10,30.00,29.89,10,10,10,22,7,26,0.00,0,,267
2012-10-9,66,46,26,18,14,11,55,34,13,30.08,30.03,29.92,10,10,10,12,4,14,0.00,0,,272
2012-10-10,73,49,24,23,18,14,74,43,12,30.12,29.99,29.89,10,10,10,12,3,15,0.00,0,,247
2012-10-11,76,55,33,35,29,22,61,41,21,30.00,29.92,29.84,10,10,10,8,4,13,0.00,1,,40
2012-10-12,75,55,35,42,35,30,76,50,23,29.95,29.84,29.74,10,10,10,18,6,24,0.00,1,,236
2012-10-13,63,57,51,42,39,37,66,53,39,30.28,30.08,29.82,10,10,10,29,18,37,0.00,3,,214
2012-10-14,69,54,39,38,36,31,79,53,27,30.33,30.22,30.08,10,10,10,20,9,24,0.00,0,,217
2012-10-15,69,61,53,41,36,32,51,42,32,30.04,29.96,29.91,10,10,10,33,19,40,T,2,,208
2012-10-16,64,51,37,54,39,18,83,60,36,29.97,29.80,29.68,10,9,2,40,21,58,0.16,4,Rain-Thunderstorm,235
2012-10-17,52,42,31,26,22,15,72,50,28,30.26,30.19,30.02,10,10,10,24,14,30,0.00,0,,222
2012-10-18,60,43,25,26,22,15,75,47,19,30.38,30.28,30.20,10,10,10,12,5,16,0.00,0,,243
2012-10-19,70,48,25,28,23,18,85,51,16,30.19,30.01,29.76,10,10,10,22,6,28,0.00,3,,232
2012-10-20,64,56,48,39,32,19,56,38,19,29.83,29.71,29.66,10,10,10,22,14,26,0.00,5,,224
2012-10-21,52,41,30,33,27,23,72,54,35,29.85,29.80,29.74,10,10,10,18,7,22,0.00,4,,233
2012-10-22,50,42,34,42,35,27,93,71,49,29.80,29.72,29.64,10,9,3,23,7,29,0.47,7,Rain,198
2012-10-23,46,37,28,34,30,25,85,73,60,30.00,29.90,29.77,10,10,2,28,9,35,0.03,5,Rain-Snow,211
2012-10-24,44,33,22,32,25,20,100,70,39,30.12,30.07,30.01,10,9,1,14,5,17,0.16,3,Snow,220
2012-10-25,41,35,29,32,30,26,100,80,59,30.47,30.26,30.08,10,7,0,23,12,29,0.21,7,Fog-Snow,227
2012-10-26,43,28,13,28,23,14,100,74,48,30.56,30.39,30.19,10,10,10,21,9,25,0.00,4,,198
2012-10-27,50,40,29,32,29,26,92,69,45,30.20,30.16,30.11,10,10,10,20,10,24,T,6,,228
2012-10-28,62,54,45,45,40,33,93,68,43,30.12,30.06,30.01,10,10,10,24,13,30,0.02,7,Rain,214
2012-10-29,68,55,42,37,35,33,76,52,27,30.14,30.07,30.02,10,10,10,23,11,29,0.00,1,,224
2012-10-30,69,51,33,37,32,26,92,56,20,30.19,30.11,30.04,10,10,10,15,5,21,0.00,0,,189
2012-10-31,75,54,32,36,29,22,89,53,16,30.13,30.01,29.82,10,10,10,24,8,31,0.00,0,,114